createdAt,value
2019-03-08T00:01:00.127Z,99689.80
2019-03-08T00:03:31.904Z,99689.14
2019-03-08T00:06:03.602Z,99683.12
2019-03-08T00:08:35.349Z,99690.19
2019-03-08T00:11:07.225Z,99690.70
2019-03-08T00:13:38.923Z,99682.00
2019-03-08T00:16:10.528Z,99682.63
2019-03-08T00:18:42.305Z,99687.83
2019-03-08T00:21:14.181Z,99692.44
2019-03-08T00:23:46.103Z,99696.61
2019-03-08T00:26:17.693Z,99702.72
2019-03-08T00:28:49.384Z,99702.14
2019-03-08T00:31:20.978Z,99699.26
2019-03-08T00:33:53.524Z,99696.36
2019-03-08T00:36:25.102Z,99699.46
2019-03-08T00:38:56.699Z,99699.62
2019-03-08T00:41:28.298Z,99702.92
2019-03-08T00:43:59.917Z,99703.02
2019-03-08T00:46:31.789Z,99702.77
2019-03-08T00:49:03.463Z,99707.45
2019-03-08T00:51:35.057Z,99711.47
2019-03-08T00:54:06.657Z,99707.85
2019-03-08T00:56:39.690Z,99714.31
2019-03-08T00:59:11.507Z,99709.77
2019-03-08T01:01:43.254Z,99704.92
2019-03-08T01:04:14.845Z,99704.81
2019-03-08T01:06:46.512Z,99702.64
2019-03-08T01:09:18.092Z,99708.73
2019-03-08T01:11:49.663Z,99712.28
2019-03-08T01:14:21.306Z,99709.70
2019-03-08T01:16:52.943Z,99707.89
2019-03-08T01:19:24.553Z,99703.15
2019-03-08T01:21:56.489Z,99703.41
2019-03-08T01:24:28.078Z,99692.56
2019-03-08T01:26:59.662Z,99692.20
2019-03-08T01:29:31.295Z,99692.09
2019-03-08T01:32:02.876Z,99690.53
2019-03-08T01:34:34.478Z,99690.14
2019-03-08T01:37:06.145Z,99693.19
2019-03-08T01:39:37.770Z,99689.05
2019-03-08T01:42:09.363Z,99685.93
2019-03-08T01:44:41.028Z,99682.34
2019-03-08T01:47:12.973Z,99675.68
2019-03-08T01:49:44.586Z,99676.66
2019-03-08T01:52:16.295Z,99675.06
2019-03-08T01:54:47.915Z,99679.23
2019-03-08T01:57:19.771Z,99676.04
2019-03-08T01:59:51.485Z,99680.39
2019-03-08T02:02:23.149Z,99678.72
2019-03-08T02:04:54.749Z,99673.06
2019-03-08T02:07:26.346Z,99676.11
2019-03-08T02:09:58.105Z,99675.23
2019-03-08T02:12:29.757Z,99673.78
2019-03-08T02:15:01.530Z,99670.85
2019-03-08T02:17:33.401Z,99670.02
2019-03-08T02:20:05.485Z,99663.93
2019-03-08T02:22:37.083Z,99660.74
2019-03-08T02:25:08.690Z,99662.85
2019-03-08T02:27:40.426Z,99648.25
2019-03-08T02:30:14.321Z,99637.20
2019-03-08T02:32:46.371Z,99648.14
2019-03-08T02:35:18.844Z,99651.44
2019-03-08T02:37:50.414Z,99645.02
2019-03-08T02:40:38.164Z,99635.75
2019-03-08T02:43:11.685Z,99631.98
2019-03-08T02:45:43.332Z,99627.59
2019-03-08T02:48:15.375Z,99626.52
2019-03-08T02:50:47.229Z,99621.01
2019-03-08T02:53:19.157Z,99627.81
2019-03-08T02:55:50.814Z,99621.73
2019-03-08T02:58:23.469Z,99621.26
2019-03-08T03:00:55.154Z,99628.54
2019-03-08T03:03:26.830Z,99625.03
2019-03-08T03:05:58.494Z,99624.59
2019-03-08T03:08:31.143Z,99627.77
2019-03-08T03:11:02.727Z,99622.41
2019-03-08T03:13:34.373Z,99627.16
2019-03-08T03:16:06.265Z,99629.48
2019-03-08T03:18:37.918Z,99625.81
2019-03-08T03:21:09.511Z,99638.02
2019-03-08T03:23:41.089Z,99631.32
2019-03-08T03:26:12.878Z,99623.05
2019-03-08T03:28:44.626Z,99625.88
2019-03-08T03:31:16.403Z,99624.53
2019-03-08T03:33:48.071Z,99622.83
2019-03-08T03:36:19.747Z,99625.41
2019-03-08T03:38:51.358Z,99624.59
2019-03-08T03:41:23.079Z,99628.83
2019-03-08T03:43:54.663Z,99628.61
2019-03-08T03:46:26.389Z,99628.49
2019-03-08T03:48:58.042Z,99622.99
2019-03-08T03:51:29.635Z,99624.94
2019-03-08T03:54:01.258Z,99622.77
2019-03-08T03:56:32.858Z,99623.27
2019-03-08T03:59:04.447Z,99613.86
2019-03-08T04:01:39.952Z,99615.09
2019-03-08T04:04:11.611Z,99615.94
2019-03-08T04:06:43.285Z,99620.31
2019-03-08T04:09:15.062Z,99615.09
2019-03-08T04:11:46.833Z,99616.44
2019-03-08T04:14:18.418Z,99610.58
2019-03-08T04:16:49.986Z,99608.98
2019-03-08T04:19:21.584Z,99611.92
2019-03-08T04:21:53.165Z,99608.98
2019-03-08T04:24:24.757Z,99609.12
2019-03-08T04:26:56.738Z,99605.58
2019-03-08T04:29:28.320Z,99595.73
2019-03-08T04:32:00.086Z,99601.90
2019-03-08T04:34:31.761Z,99607.06
2019-03-08T04:37:03.466Z,99598.38
2019-03-08T04:39:35.396Z,99594.75
2019-03-08T04:42:07.004Z,99590.98
2019-03-08T04:44:38.587Z,99594.86
2019-03-08T04:47:10.205Z,99586.83
2019-03-08T04:49:41.855Z,99584.03
2019-03-08T04:52:13.456Z,99587.08
2019-03-08T04:54:45.341Z,99579.80
2019-03-08T04:57:17.257Z,99587.22
2019-03-08T04:59:49.182Z,99588.78
2019-03-08T05:02:20.756Z,99584.79
2019-03-08T05:04:53.318Z,99589.67
2019-03-08T05:07:24.922Z,99589.81
2019-03-08T05:09:56.507Z,99569.72
2019-03-08T05:12:28.103Z,99580.68
2019-03-08T05:14:59.973Z,99570.23
2019-03-08T05:17:31.573Z,99574.26
2019-03-08T05:20:04.237Z,99568.28
2019-03-08T05:22:35.919Z,99568.06
2019-03-08T05:25:07.569Z,99576.09
2019-03-08T05:27:39.447Z,99577.90
2019-03-08T05:30:11.767Z,99577.80
2019-03-08T05:32:43.441Z,99571.59
2019-03-08T05:35:16.192Z,99576.58
2019-03-08T05:37:47.782Z,99565.63
2019-03-08T05:40:19.372Z,99559.66
2019-03-08T05:42:50.936Z,99567.21
2019-03-08T05:45:22.521Z,99570.62
2019-03-08T05:47:54.124Z,99571.09
2019-03-08T05:50:26.025Z,99575.36
2019-03-08T05:52:57.686Z,99565.65
2019-03-08T05:55:29.364Z,99565.73
2019-03-08T05:58:00.969Z,99564.29
2019-03-08T06:00:35.051Z,99562.34
2019-03-08T06:03:06.265Z,99559.77
2019-03-08T06:05:37.910Z,99567.08
2019-03-08T06:08:09.524Z,99561.23
2019-03-08T06:10:41.121Z,99573.39
2019-03-08T06:13:13.129Z,99572.89
2019-03-08T06:15:44.907Z,99581.52
2019-03-08T06:18:17.563Z,99574.47
2019-03-08T06:20:49.158Z,99582.23
2019-03-08T06:23:20.742Z,99565.77
2019-03-08T06:25:52.366Z,99569.86
2019-03-08T06:28:24.348Z,99571.56
2019-03-08T06:30:56.248Z,99570.41
2019-03-08T06:33:27.857Z,99572.94
2019-03-08T06:35:59.529Z,99578.98
2019-03-08T06:38:31.141Z,99580.17
2019-03-08T06:41:02.730Z,99582.24
2019-03-08T06:43:34.328Z,99575.14
2019-03-08T06:46:06.003Z,99576.36
2019-03-08T06:48:37.678Z,99583.52
2019-03-08T06:51:09.280Z,99574.81
2019-03-08T06:53:40.897Z,99575.53
2019-03-08T06:56:12.488Z,99573.31
2019-03-08T06:58:55.817Z,99580.33
2019-03-08T07:01:32.145Z,99579.09
2019-03-08T07:04:03.765Z,99580.73
2019-03-08T07:06:35.669Z,99578.03
2019-03-08T07:09:08.044Z,99588.45
2019-03-08T07:11:40.209Z,99580.59
2019-03-08T07:14:12.369Z,99582.37
2019-03-08T07:16:44.244Z,99576.09
2019-03-08T07:19:16.810Z,99582.53
2019-03-08T07:22:10.443Z,99592.31
2019-03-08T07:25:01.268Z,99597.56
2019-03-08T07:27:57.391Z,99595.27
2019-03-08T07:30:54.893Z,99587.63
2019-03-08T07:33:28.259Z,99585.59
2019-03-08T07:36:09.166Z,99596.27
2019-03-08T07:39:05.544Z,99595.44
2019-03-08T07:41:58.283Z,99605.67
2019-03-08T07:44:48.870Z,99613.73
2019-03-08T07:47:37.989Z,99603.26
2019-03-08T07:50:22.900Z,99599.05
2019-03-08T07:53:03.837Z,99608.72
2019-03-08T07:55:50.743Z,99608.45
2019-03-08T07:58:36.876Z,99601.81
2019-03-08T08:01:19.317Z,99595.38
2019-03-08T08:04:13.053Z,99601.11
2019-03-08T08:06:50.187Z,99605.92
2019-03-08T08:09:41.229Z,99622.14
2019-03-08T08:12:36.411Z,99602.67
2019-03-08T08:15:27.448Z,99602.58
2019-03-08T08:18:05.047Z,99627.13
2019-03-08T08:20:55.735Z,99613.23
2019-03-08T08:23:37.418Z,99622.72
2019-03-08T08:26:24.047Z,99643.73
2019-03-08T08:29:14.460Z,99617.68
2019-03-08T08:32:24.167Z,99626.72
2019-03-08T08:35:05.601Z,99614.77
2019-03-08T08:38:06.821Z,99630.20
2019-03-08T08:41:00.673Z,99622.11
2019-03-08T08:43:42.008Z,99628.81
2019-03-08T08:46:32.770Z,99639.45
2019-03-08T08:49:21.872Z,99641.92
2019-03-08T08:52:11.241Z,99630.80
2019-03-08T08:55:04.829Z,99634.93
2019-03-08T08:57:57.215Z,99640.47
2019-03-08T09:00:52.019Z,99643.20
2019-03-08T09:03:39.704Z,99659.62
2019-03-08T09:06:35.331Z,99662.79
2019-03-08T09:09:29.711Z,99634.80
2019-03-08T09:12:16.399Z,99636.76
2019-03-08T09:15:04.083Z,99644.13
2019-03-08T09:18:13.991Z,99659.39
2019-03-08T09:21:03.498Z,99652.15
2019-03-08T09:23:42.055Z,99657.41
2019-03-08T09:26:40.787Z,99658.17
2019-03-08T09:29:29.965Z,99654.97
2019-03-08T09:32:20.559Z,99657.27
2019-03-08T09:35:14.100Z,99669.78
2019-03-08T09:38:07.867Z,99673.02
2019-03-08T09:40:51.810Z,99711.45
2019-03-08T09:43:37.131Z,99696.94
2019-03-08T09:46:30.694Z,99704.24
2019-03-08T09:49:20.531Z,99709.34
2019-03-08T09:52:11.386Z,99728.40
2019-03-08T09:54:55.143Z,99715.00
2019-03-08T09:57:33.374Z,99720.46
2019-03-08T10:00:24.286Z,99750.95
2019-03-08T10:03:05.012Z,99727.68
2019-03-08T10:05:56.914Z,99717.65
2019-03-08T10:08:56.539Z,99757.23
2019-03-08T10:11:52.901Z,99735.25
2019-03-08T10:14:33.226Z,99724.27
2019-03-08T10:17:23.740Z,99766.85
2019-03-08T10:20:11.267Z,99759.70
2019-03-08T10:23:05.176Z,99776.73
2019-03-08T10:25:58.509Z,99754.53
2019-03-08T10:28:49.792Z,99753.89
2019-03-08T10:31:26.695Z,99757.44
2019-03-08T10:34:15.880Z,99765.94
2019-03-08T10:37:01.688Z,99765.30
2019-03-08T10:39:41.833Z,99794.44
2019-03-08T10:42:29.466Z,99792.48
2019-03-08T10:45:20.105Z,99776.83
2019-03-08T10:48:09.501Z,99794.49
2019-03-08T10:51:01.429Z,99821.38
2019-03-08T10:53:45.808Z,99853.40
2019-03-08T10:56:28.719Z,99844.05
2019-03-08T10:59:34.794Z,99818.83
2019-03-08T11:02:43.565Z,99829.32
2019-03-08T11:05:44.886Z,99841.80
2019-03-08T11:08:34.296Z,99822.00
2019-03-08T11:11:18.764Z,99821.88
2019-03-08T11:14:01.050Z,99825.55
2019-03-08T11:16:43.390Z,99846.27
2019-03-08T11:19:53.576Z,99843.77
2019-03-08T11:22:52.851Z,99837.75
2019-03-08T11:25:44.201Z,99829.89
2019-03-08T11:28:34.207Z,99842.28
2019-03-08T11:31:24.714Z,99833.55
2019-03-08T11:34:25.424Z,99828.00
2019-03-08T11:37:14.853Z,99809.33
2019-03-08T11:39:53.088Z,99826.41
2019-03-08T11:42:46.745Z,99847.03
2019-03-08T11:45:43.064Z,99835.39
2019-03-08T11:48:25.303Z,99832.76
2019-03-08T11:51:14.129Z,99840.72
2019-03-08T11:54:13.760Z,99839.95
2019-03-08T11:56:59.535Z,99835.06
2019-03-08T12:00:00.324Z,99844.12
2019-03-08T12:02:49.318Z,99848.32
2019-03-08T12:05:38.547Z,99850.41
2019-03-08T12:08:27.807Z,99845.62
2019-03-08T12:11:29.159Z,99848.09
2019-03-08T12:14:19.749Z,99848.86
2019-03-08T12:17:10.071Z,99835.38
2019-03-08T12:20:09.619Z,99833.94
2019-03-08T12:22:58.766Z,99847.06
2019-03-08T12:25:42.532Z,99844.08
2019-03-08T12:28:31.729Z,99838.31
2019-03-08T12:31:38.144Z,99848.64
2019-03-08T12:34:27.363Z,99861.73
2019-03-08T12:37:07.905Z,99856.34
2019-03-08T12:40:01.477Z,99874.58
2019-03-08T12:42:51.144Z,99884.59
2019-03-08T12:45:35.411Z,99860.06
2019-03-08T12:48:24.356Z,99892.13
2019-03-08T12:51:04.667Z,99904.80
2019-03-08T12:54:07.373Z,99921.51
2019-03-08T12:57:03.767Z,99955.08
2019-03-08T12:59:45.217Z,99961.34
2019-03-08T13:02:42.044Z,99970.53
2019-03-08T13:05:35.341Z,99946.52
2019-03-08T13:08:42.100Z,99957.25
2019-03-08T13:11:13.943Z,99945.30
2019-03-08T13:13:45.538Z,99947.63
2019-03-08T13:16:17.126Z,99937.00
2019-03-08T13:18:48.702Z,99942.47
2019-03-08T13:21:20.297Z,99935.00
2019-03-08T13:23:52.881Z,99951.34
2019-03-08T13:26:25.542Z,99950.08
2019-03-08T13:28:57.211Z,99965.47
2019-03-08T13:31:28.802Z,99944.33
2019-03-08T13:34:00.454Z,99954.31
2019-03-08T13:36:32.119Z,99957.08
2019-03-08T13:39:05.080Z,99954.61
2019-03-08T13:41:38.281Z,99958.02
2019-03-08T13:44:09.889Z,99973.41
2019-03-08T13:46:41.493Z,99990.41
2019-03-08T13:49:13.167Z,99997.62
2019-03-08T13:51:44.867Z,100012.78
2019-03-08T13:54:16.787Z,100058.34
2019-03-08T13:56:48.530Z,100052.27
2019-03-08T13:59:20.147Z,100050.96
2019-03-08T14:01:51.751Z,100049.45
2019-03-08T14:04:23.426Z,100052.02
2019-03-08T14:06:55.039Z,100055.12
2019-03-08T14:09:26.658Z,100068.52
2019-03-08T14:11:58.252Z,100052.44
2019-03-08T14:14:30.137Z,100059.65
2019-03-08T14:17:01.737Z,100064.77
2019-03-08T14:19:33.331Z,100058.69
2019-03-08T14:22:05.286Z,100065.89
2019-03-08T14:24:36.933Z,100073.84
2019-03-08T14:27:08.599Z,100076.67
2019-03-08T14:29:40.986Z,100071.61
2019-03-08T14:32:21.270Z,100070.64
2019-03-08T14:34:53.754Z,100076.98
2019-03-08T14:37:24.112Z,100080.16
2019-03-08T14:39:55.783Z,100090.19
2019-03-08T14:42:45.544Z,100077.14
2019-03-08T14:45:24.060Z,100083.23
2019-03-08T14:47:57.624Z,100099.94
2019-03-08T14:50:31.889Z,100103.86
2019-03-08T14:53:02.614Z,100108.49
2019-03-08T14:55:34.556Z,100113.86
2019-03-08T14:58:06.154Z,100113.52
2019-03-08T15:00:38.063Z,100131.69
2019-03-08T15:03:09.742Z,100131.32
2019-03-08T15:05:41.414Z,100136.45
2019-03-08T15:08:13.737Z,100137.80
2019-03-08T15:10:47.110Z,100138.64
2019-03-08T15:13:20.215Z,100149.01
2019-03-08T15:15:52.681Z,100161.92
2019-03-08T15:18:29.441Z,100163.50
2019-03-08T15:21:00.136Z,100168.12
2019-03-08T15:23:32.012Z,100173.72
2019-03-08T15:26:03.630Z,100175.80
2019-03-08T15:28:36.227Z,100173.86
2019-03-08T15:31:09.649Z,100189.13
2019-03-08T15:33:44.005Z,100190.94
2019-03-08T15:36:16.297Z,100192.78
2019-03-08T15:38:48.062Z,100206.66
2019-03-08T15:41:25.028Z,100198.99
2019-03-08T15:43:57.556Z,100207.17
2019-03-08T15:46:29.523Z,100214.86
2019-03-08T15:49:01.346Z,100215.83
2019-03-08T15:51:33.179Z,100214.53
2019-03-08T15:54:05.048Z,100221.61
2019-03-08T15:56:37.252Z,100216.58
2019-03-08T15:59:12.565Z,100225.59
2019-03-08T16:01:44.249Z,100229.98
2019-03-08T16:04:16.233Z,100232.17
2019-03-08T16:06:48.035Z,100236.92
2019-03-08T16:09:19.747Z,100241.69
2019-03-08T16:11:51.401Z,100249.81
2019-03-08T16:14:23.327Z,100256.75
2019-03-08T16:16:55.237Z,100258.83
2019-03-08T16:19:27.019Z,100263.08
2019-03-08T16:21:58.619Z,100274.55
2019-03-08T16:24:31.087Z,100278.52
2019-03-08T16:27:03.902Z,100287.05
2019-03-08T16:29:35.969Z,100278.88
2019-03-08T16:32:26.694Z,100290.81
2019-03-08T16:34:58.824Z,100301.92
2019-03-08T16:38:01.310Z,100293.88
2019-03-08T16:40:50.476Z,100322.02
2019-03-08T16:43:45.783Z,100325.66
2019-03-08T16:46:26.609Z,100327.13
2019-03-08T16:49:03.542Z,100329.63
2019-03-08T16:52:09.334Z,100332.37
2019-03-08T16:54:55.093Z,100345.41
2019-03-08T16:57:44.507Z,100333.69
2019-03-08T17:00:41.203Z,100353.73
2019-03-08T17:03:22.843Z,100354.33
2019-03-08T17:06:12.052Z,100367.11
2019-03-08T17:08:53.338Z,100364.86
2019-03-08T17:11:46.999Z,100374.62
2019-03-08T17:14:34.478Z,100389.32
2019-03-08T17:17:16.122Z,100397.58
2019-03-08T17:19:59.444Z,100398.16
2019-03-08T17:22:56.408Z,100409.01
2019-03-08T17:25:36.491Z,100411.98
2019-03-08T17:28:25.686Z,100420.23
2019-03-08T17:31:34.096Z,100425.97
2019-03-08T17:34:23.440Z,100429.99
2019-03-08T17:37:17.097Z,100450.09
2019-03-08T17:40:10.357Z,100448.96
2019-03-08T17:43:00.522Z,100457.07
2019-03-08T17:45:51.616Z,100462.05
2019-03-08T17:48:33.262Z,100464.44
2019-03-08T17:51:24.281Z,100471.14
2019-03-08T17:54:26.923Z,100474.11
2019-03-08T17:57:16.057Z,100483.37
2019-03-08T18:00:15.791Z,100486.72
2019-03-08T18:03:09.498Z,100493.09
2019-03-08T18:05:58.484Z,100493.55
2019-03-08T18:08:52.062Z,100498.33
2019-03-08T18:11:40.916Z,100502.18
2019-03-08T18:14:49.780Z,100504.75
2019-03-08T18:17:40.581Z,100516.57
2019-03-08T18:20:32.601Z,100515.98
2019-03-08T18:23:23.597Z,100523.94
2019-03-08T18:26:13.612Z,100526.41
2019-03-08T18:29:10.082Z,100527.75
2019-03-08T18:32:06.858Z,100531.56
2019-03-08T18:34:59.565Z,100530.61
2019-03-08T18:37:41.937Z,100541.14
2019-03-08T18:40:35.595Z,100545.18
2019-03-08T18:43:35.370Z,100543.89
2019-03-08T18:46:15.893Z,100544.87
2019-03-08T18:49:06.481Z,100538.69
2019-03-08T18:52:00.813Z,100548.25
2019-03-08T18:54:55.306Z,100547.38
2019-03-08T18:57:44.594Z,100548.76
2019-03-08T19:00:41.294Z,100559.54
2019-03-08T19:03:24.445Z,100555.45
2019-03-08T19:06:03.735Z,100558.97
2019-03-08T19:08:52.929Z,100565.59
2019-03-08T19:11:43.858Z,100564.52
2019-03-08T19:14:36.669Z,100563.49
2019-03-08T19:17:23.903Z,100575.65
2019-03-08T19:20:22.411Z,100584.05
2019-03-08T19:23:16.292Z,100586.27
2019-03-08T19:26:13.129Z,100587.29
2019-03-08T19:29:07.166Z,100600.97
2019-03-08T19:31:47.810Z,100601.92
2019-03-08T19:34:39.131Z,100604.41
2019-03-08T19:37:35.763Z,100609.75
2019-03-08T19:40:14.108Z,100623.22
2019-03-08T19:43:04.709Z,100628.17
2019-03-08T19:46:01.340Z,100624.09
2019-03-08T19:48:43.954Z,100629.23
2019-03-08T19:51:33.137Z,100634.55
2019-03-08T19:54:21.543Z,100636.38
2019-03-08T19:57:30.933Z,100641.91
2019-03-08T20:00:20.965Z,100645.72
2019-03-08T20:03:09.863Z,100645.41
2019-03-08T20:05:49.622Z,100644.81
2019-03-08T20:08:49.207Z,100654.56
2019-03-08T20:11:58.163Z,100657.80
2019-03-08T20:14:46.689Z,100656.32
2019-03-08T20:17:43.061Z,100655.55
2019-03-08T20:20:32.794Z,100653.44
2019-03-08T20:23:33.704Z,100653.72
2019-03-08T20:26:24.509Z,100659.34
2019-03-08T20:29:19.392Z,100661.41
2019-03-08T20:32:05.466Z,100671.89
2019-03-08T20:34:54.540Z,100678.34
2019-03-08T20:37:33.286Z,100675.24
2019-03-08T20:40:23.061Z,100685.27
2019-03-08T20:43:20.317Z,100685.70
2019-03-08T20:46:05.747Z,100680.05
2019-03-08T20:48:37.427Z,100684.77
2019-03-08T20:51:09.095Z,100696.00
2019-03-08T20:53:44.226Z,100691.38
2019-03-08T20:56:16.206Z,100690.60
2019-03-08T20:58:47.921Z,100699.39
2019-03-08T21:01:19.801Z,100697.02
2019-03-08T21:03:51.480Z,100699.00
2019-03-08T21:06:23.192Z,100701.39
2019-03-08T21:08:55.932Z,100697.30
2019-03-08T21:11:30.467Z,100706.17
2019-03-08T21:14:02.735Z,100708.48
2019-03-08T21:16:34.421Z,100711.80
2019-03-08T21:19:06.027Z,100710.95
2019-03-08T21:21:37.715Z,100715.64
2019-03-08T21:24:09.584Z,100722.19
2019-03-08T21:26:44.300Z,100715.52
2019-03-08T21:29:16.060Z,100719.28
2019-03-08T21:31:47.848Z,100728.16
2019-03-08T21:34:19.542Z,100720.48
2019-03-08T21:36:51.243Z,100721.17
2019-03-08T21:39:27.159Z,100729.25
2019-03-08T21:41:58.858Z,100728.02
2019-03-08T21:44:30.565Z,100725.41
2019-03-08T21:47:02.207Z,100732.72
2019-03-08T21:49:33.879Z,100728.52
2019-03-08T21:52:05.543Z,100722.92
2019-03-08T21:54:37.231Z,100728.78
2019-03-08T21:57:09.005Z,100731.55
2019-03-08T21:59:40.673Z,100736.95
2019-03-08T22:02:12.353Z,100737.12
2019-03-08T22:04:47.688Z,100741.67
2019-03-08T22:07:19.460Z,100736.40
2019-03-08T22:10:10.017Z,100744.56
2019-03-08T22:12:41.695Z,100744.33
2019-03-08T22:15:13.900Z,100749.52
2019-03-08T22:17:45.564Z,100745.05
2019-03-08T22:20:17.149Z,100744.75
2019-03-08T22:22:49.857Z,100752.27
2019-03-08T22:25:22.546Z,100746.48
2019-03-08T22:27:54.245Z,100753.16
2019-03-08T22:30:25.856Z,100755.34
2019-03-08T22:32:57.464Z,100750.25
2019-03-08T22:35:29.087Z,100747.97
2019-03-08T22:38:00.693Z,100751.33
2019-03-08T22:40:32.367Z,100746.63
2019-03-08T22:43:03.982Z,100749.98
2019-03-08T22:45:35.573Z,100751.58
2019-03-08T22:48:08.015Z,100748.52
2019-03-08T22:50:40.684Z,100743.32
2019-03-08T22:53:12.274Z,100741.53
2019-03-08T22:55:45.428Z,100744.98
2019-03-08T22:58:17.060Z,100745.69
2019-03-08T23:01:12.930Z,100745.69
2019-03-08T23:03:46.190Z,100746.17
2019-03-08T23:06:18.124Z,100748.66
2019-03-08T23:08:49.935Z,100748.98
2019-03-08T23:11:21.531Z,100753.78
2019-03-08T23:13:53.124Z,100749.22
2019-03-08T23:16:24.745Z,100747.66
2019-03-08T23:18:56.416Z,100751.42
2019-03-08T23:21:28.022Z,100749.44
2019-03-08T23:23:59.622Z,100753.30
2019-03-08T23:26:35.278Z,100752.97
2019-03-08T23:29:13.872Z,100746.65
2019-03-08T23:32:02.011Z,100736.13
2019-03-08T23:34:33.967Z,100736.05
2019-03-08T23:37:05.568Z,100743.11
2019-03-08T23:39:37.227Z,100730.41
2019-03-08T23:42:08.857Z,100736.34
2019-03-08T23:44:41.506Z,100740.34
2019-03-08T23:47:13.195Z,100736.59
2019-03-08T23:49:45.040Z,100732.50
2019-03-08T23:52:17.006Z,100738.02
2019-03-08T23:54:48.597Z,100734.80
2019-03-08T23:57:20.264Z,100733.69
2019-03-08T23:59:51.938Z,100734.63
